createdAt,value
2019-06-08T00:00:40.088Z,3.70
2019-06-08T00:02:06.264Z,3.67
2019-06-08T00:03:31.735Z,3.60
2019-06-08T00:04:57.771Z,4.73
2019-06-08T00:06:23.263Z,3.03
2019-06-08T00:07:49.299Z,4.73
2019-06-08T00:09:14.778Z,4.53
2019-06-08T00:10:40.828Z,4.00
2019-06-08T00:12:06.513Z,4.15
2019-06-08T00:13:32.628Z,3.27
2019-06-08T00:14:58.123Z,3.73
2019-06-08T00:16:24.205Z,4.80
2019-06-08T00:17:49.651Z,4.20
2019-06-08T00:19:15.891Z,4.63
2019-06-08T00:20:41.372Z,4.57
2019-06-08T00:22:07.627Z,5.10
2019-06-08T00:23:33.048Z,5.13
2019-06-08T00:24:59.112Z,3.70
2019-06-08T00:26:24.605Z,4.40
2019-06-08T00:27:50.668Z,4.40
2019-06-08T00:29:16.242Z,3.93
2019-06-08T00:30:42.493Z,3.90
2019-06-08T00:32:07.968Z,3.60
2019-06-08T00:33:34.120Z,3.93
2019-06-08T00:34:59.592Z,3.90
2019-06-08T00:36:25.741Z,4.20
2019-06-08T00:37:51.219Z,4.00
2019-06-08T00:39:17.264Z,3.80
2019-06-08T00:40:42.720Z,4.07
2019-06-08T00:42:09.211Z,4.70
2019-06-08T00:43:34.689Z,4.23
2019-06-08T00:45:00.855Z,3.97
2019-06-08T00:46:26.329Z,3.50
2019-06-08T00:47:52.373Z,3.20
2019-06-08T00:49:18.459Z,4.50
2019-06-08T00:50:44.656Z,4.20
2019-06-08T00:52:10.221Z,3.90
2019-06-08T00:53:36.363Z,3.97
2019-06-08T00:55:01.950Z,3.70
2019-06-08T00:56:27.978Z,3.90
2019-06-08T00:57:53.507Z,3.67
2019-06-08T00:59:19.952Z,3.80
2019-06-08T01:00:45.552Z,3.40
2019-06-08T01:02:11.692Z,3.90
2019-06-08T01:03:37.148Z,3.87
2019-06-08T01:05:03.354Z,3.60
2019-06-08T01:06:29.836Z,3.43
2019-06-08T01:07:56.047Z,3.27
2019-06-08T01:09:22.156Z,4.03
2019-06-08T01:10:48.396Z,3.43
2019-06-08T01:12:13.871Z,3.70
2019-06-08T01:13:39.960Z,4.63
2019-06-08T01:15:06.086Z,3.87
2019-06-08T01:16:32.192Z,2.77
2019-06-08T01:18:03.479Z,3.80
2019-06-08T01:19:25.820Z,2.67
2019-06-08T01:20:52.630Z,4.17
2019-06-08T01:22:19.465Z,2.77
2019-06-08T01:23:45.148Z,3.80
2019-06-08T01:25:11.296Z,4.03
2019-06-08T01:26:36.840Z,3.60
2019-06-08T01:28:02.990Z,4.17
2019-06-08T01:29:28.558Z,4.30
2019-06-08T01:30:54.626Z,4.17
2019-06-08T01:32:20.309Z,3.97
2019-06-08T01:33:46.415Z,3.60
2019-06-08T01:35:12.647Z,3.90
2019-06-08T01:36:38.684Z,3.60
2019-06-08T01:38:04.236Z,3.80
2019-06-08T01:39:32.272Z,3.43
2019-06-08T01:40:57.370Z,3.90
2019-06-08T01:42:23.477Z,3.97
2019-06-08T01:43:48.904Z,4.20
2019-06-08T01:45:30.467Z,3.30
2019-06-08T01:46:56.491Z,3.20
2019-06-08T01:48:22.315Z,3.43
2019-06-08T01:49:48.647Z,3.60
2019-06-08T01:51:14.111Z,3.50
2019-06-08T01:52:40.140Z,3.23
2019-06-08T01:54:05.823Z,3.60
2019-06-08T01:55:33.177Z,3.20
2019-06-08T01:56:58.808Z,3.20
2019-06-08T01:58:25.355Z,4.00
2019-06-08T01:59:50.912Z,3.50
2019-06-08T02:01:16.997Z,4.17
2019-06-08T02:02:42.478Z,3.30
2019-06-08T02:04:08.525Z,3.60
2019-06-08T02:05:34.513Z,3.57
2019-06-08T02:07:00.804Z,3.43
2019-06-08T02:08:26.596Z,3.83
2019-06-08T02:09:52.751Z,4.53
2019-06-08T02:11:18.264Z,3.80
2019-06-08T02:12:44.267Z,4.37
2019-06-08T02:14:09.848Z,4.03
2019-06-08T02:15:35.997Z,4.30
2019-06-08T02:17:01.457Z,4.73
2019-06-08T02:18:40.067Z,3.60
2019-06-08T02:19:54.692Z,4.00
2019-06-08T02:21:20.775Z,3.70
2019-06-08T02:22:46.264Z,3.50
2019-06-08T02:24:12.338Z,3.83
2019-06-08T02:25:37.950Z,3.73
2019-06-08T02:27:03.964Z,3.50
2019-06-08T02:28:29.475Z,3.53
2019-06-08T02:29:55.617Z,3.50
2019-06-08T02:31:21.205Z,3.33
2019-06-08T02:32:47.273Z,3.83
2019-06-08T02:34:12.731Z,3.90
2019-06-08T02:35:38.800Z,5.50
2019-06-08T02:37:04.381Z,3.60
2019-06-08T02:38:31.944Z,3.73
2019-06-08T02:39:57.510Z,4.10
2019-06-08T02:41:23.596Z,4.00
2019-06-08T02:42:49.072Z,3.60
2019-06-08T02:44:15.222Z,3.90
2019-06-08T02:45:40.707Z,3.27
2019-06-08T02:47:06.936Z,3.50
2019-06-08T02:48:33.618Z,3.50
2019-06-08T02:50:00.168Z,3.30
2019-06-08T02:51:26.139Z,3.70
2019-06-08T02:52:54.196Z,3.73
2019-06-08T02:54:19.875Z,3.53
2019-06-08T02:55:48.285Z,3.73
2019-06-08T02:57:15.110Z,3.70
2019-06-08T02:58:43.498Z,3.20
2019-06-08T03:00:09.562Z,3.37
2019-06-08T03:01:38.851Z,3.57
2019-06-08T03:03:05.591Z,3.80
2019-06-08T03:04:34.586Z,3.33
2019-06-08T03:06:02.813Z,4.50
2019-06-08T03:07:34.250Z,3.60
2019-06-08T03:08:59.925Z,4.17
2019-06-08T03:10:26.315Z,4.30
2019-06-08T03:11:53.290Z,3.43
2019-06-08T03:13:20.341Z,3.60
2019-06-08T03:14:47.842Z,4.00
2019-06-08T03:16:13.880Z,3.27
2019-06-08T03:17:40.103Z,3.90
2019-06-08T03:19:21.103Z,3.80
2019-06-08T03:20:35.623Z,3.70
2019-06-08T03:22:01.834Z,3.97
2019-06-08T03:23:27.368Z,4.27
2019-06-08T03:24:53.553Z,3.77
2019-06-08T03:26:19.240Z,3.60
2019-06-08T03:27:45.534Z,4.40
2019-06-08T03:29:10.981Z,4.00
2019-06-08T03:30:42.212Z,4.67
2019-06-08T03:32:04.173Z,3.87
2019-06-08T03:33:30.242Z,4.73
2019-06-08T03:34:56.981Z,5.30
2019-06-08T03:36:23.501Z,4.00
2019-06-08T03:37:48.981Z,4.27
2019-06-08T03:39:15.046Z,4.23
2019-06-08T03:40:41.028Z,4.00
2019-06-08T03:42:08.247Z,4.20
2019-06-08T03:43:35.272Z,4.63
2019-06-08T03:45:01.483Z,3.90
2019-06-08T03:46:27.014Z,4.03
2019-06-08T03:47:53.082Z,3.30
2019-06-08T03:49:18.521Z,4.30
2019-06-08T03:50:46.255Z,3.75
2019-06-08T03:52:11.617Z,3.67
2019-06-08T03:53:38.388Z,3.20
2019-06-08T03:55:05.075Z,4.07
2019-06-08T03:56:31.114Z,3.40
2019-06-08T03:57:56.617Z,3.77
2019-06-08T03:59:22.774Z,4.47
2019-06-08T04:00:49.193Z,4.00
2019-06-08T04:02:15.408Z,3.17
2019-06-08T04:03:41.769Z,3.30
2019-06-08T04:05:08.683Z,4.00
2019-06-08T04:06:34.143Z,4.00
2019-06-08T04:08:00.206Z,5.90
2019-06-08T04:09:25.632Z,4.80
2019-06-08T04:10:51.690Z,4.33
2019-06-08T04:12:17.190Z,5.57
2019-06-08T04:13:47.089Z,5.13
2019-06-08T04:15:13.809Z,5.27
2019-06-08T04:16:40.209Z,5.10
2019-06-08T04:18:13.197Z,4.80
2019-06-08T04:20:10.490Z,4.80
2019-06-08T04:21:29.625Z,5.10
2019-06-08T04:22:55.113Z,3.53
2019-06-08T04:24:23.468Z,4.97
2019-06-08T04:26:14.893Z,4.20
2019-06-08T04:27:44.828Z,4.00
2019-06-08T04:29:32.841Z,5.20
2019-06-08T04:30:57.449Z,4.63
2019-06-08T04:32:34.975Z,4.57
2019-06-08T04:34:01.095Z,5.07
2019-06-08T04:35:26.546Z,5.43
2019-06-08T04:36:52.602Z,4.83
2019-06-08T04:38:18.088Z,4.30
2019-06-08T04:39:44.608Z,5.40
2019-06-08T04:41:10.601Z,4.80
2019-06-08T04:42:36.747Z,4.03
2019-06-08T04:44:02.232Z,4.53
2019-06-08T04:45:28.499Z,4.43
2019-06-08T04:46:54.092Z,4.17
2019-06-08T04:48:20.130Z,4.47
2019-06-08T04:49:47.211Z,3.90
2019-06-08T04:51:13.257Z,4.20
2019-06-08T04:52:39.487Z,4.73
2019-06-08T04:54:06.630Z,5.27
2019-06-08T04:55:32.067Z,5.20
2019-06-08T04:56:58.151Z,4.53
2019-06-08T04:58:23.633Z,5.60
2019-06-08T04:59:50.399Z,4.30
2019-06-08T05:01:16.063Z,4.70
2019-06-08T05:02:44.042Z,4.53
2019-06-08T05:04:09.272Z,4.67
2019-06-08T05:05:35.279Z,4.77
2019-06-08T05:07:00.722Z,5.13
2019-06-08T05:08:26.781Z,4.27
2019-06-08T05:09:52.249Z,4.93
2019-06-08T05:11:18.299Z,4.80
2019-06-08T05:12:45.419Z,4.60
2019-06-08T05:14:11.440Z,4.63
2019-06-08T05:15:41.408Z,4.53
2019-06-08T05:17:07.668Z,4.50
2019-06-08T05:18:33.128Z,5.00
2019-06-08T05:19:59.189Z,4.57
2019-06-08T05:21:26.207Z,4.53
2019-06-08T05:23:02.019Z,4.30
2019-06-08T05:24:29.570Z,4.60
2019-06-08T05:26:00.839Z,4.70
2019-06-08T05:27:47.335Z,5.20
2019-06-08T05:29:17.326Z,4.17
2019-06-08T05:30:45.898Z,4.37
2019-06-08T05:32:16.474Z,4.10
2019-06-08T05:33:43.420Z,3.70
2019-06-08T05:35:10.348Z,4.20
2019-06-08T05:37:57.119Z,3.83
2019-06-08T05:39:23.249Z,3.90
2019-06-08T05:40:49.741Z,4.60
2019-06-08T05:42:16.199Z,3.73
2019-06-08T05:43:41.679Z,4.23
2019-06-08T05:45:08.620Z,3.60
2019-06-08T05:46:34.190Z,4.90
2019-06-08T05:48:00.197Z,4.50
2019-06-08T05:49:25.767Z,4.00
2019-06-08T05:51:03.188Z,4.50
2019-06-08T05:52:19.412Z,4.17
2019-06-08T05:53:45.822Z,4.23
2019-06-08T05:55:11.634Z,4.63
2019-06-08T05:56:37.694Z,4.53
2019-06-08T05:58:03.156Z,5.53
2019-06-08T05:59:29.192Z,4.97
2019-06-08T06:00:54.668Z,4.80
2019-06-08T06:02:20.888Z,5.20
2019-06-08T06:03:46.604Z,5.97
2019-06-08T06:05:14.383Z,4.57
2019-06-08T06:06:40.440Z,5.40
2019-06-08T06:08:18.485Z,5.20
2019-06-08T06:09:33.876Z,4.83
2019-06-08T06:10:59.920Z,4.57
2019-06-08T06:12:25.365Z,4.60
2019-06-08T06:13:51.612Z,4.43
2019-06-08T06:15:17.913Z,5.37
2019-06-08T06:16:44.904Z,4.20
2019-06-08T06:18:11.270Z,4.90
2019-06-08T06:19:37.486Z,5.10
2019-06-08T06:21:10.760Z,5.03
2019-06-08T06:22:30.757Z,5.13
2019-06-08T06:23:56.283Z,4.37
2019-06-08T06:25:22.526Z,4.23
2019-06-08T06:26:47.987Z,5.00
2019-06-08T06:28:14.115Z,5.17
2019-06-08T06:29:39.580Z,5.40
2019-06-08T06:31:05.847Z,3.90
2019-06-08T06:32:31.323Z,3.80
2019-06-08T06:33:57.379Z,4.90
2019-06-08T06:35:22.895Z,5.50
2019-06-08T06:36:49.824Z,4.40
2019-06-08T06:38:15.367Z,4.50
2019-06-08T06:39:41.961Z,4.93
2019-06-08T06:41:08.029Z,4.80
2019-06-08T06:42:34.193Z,5.67
2019-06-08T06:43:59.737Z,4.80
2019-06-08T06:45:25.760Z,5.37
2019-06-08T06:46:52.468Z,4.30
2019-06-08T06:48:18.861Z,5.20
2019-06-08T06:49:44.570Z,4.37
2019-06-08T06:51:24.965Z,5.13
2019-06-08T06:52:37.955Z,6.53
2019-06-08T06:54:04.033Z,5.97
2019-06-08T06:55:29.505Z,4.93
2019-06-08T06:56:55.601Z,5.60
2019-06-08T06:58:21.494Z,4.70
2019-06-08T06:59:47.641Z,5.40
2019-06-08T07:01:13.129Z,5.40
2019-06-08T07:02:39.313Z,5.43
2019-06-08T07:04:05.417Z,5.67
2019-06-08T07:05:31.515Z,4.13
2019-06-08T07:06:57.105Z,5.53
2019-06-08T07:08:23.272Z,4.37
2019-06-08T07:09:48.853Z,5.10
2019-06-08T07:11:15.033Z,5.00
2019-06-08T07:12:40.480Z,5.33
2019-06-08T07:14:06.627Z,4.93
2019-06-08T07:15:41.171Z,5.30
2019-06-08T07:17:00.095Z,4.90
2019-06-08T07:18:25.648Z,4.70
2019-06-08T07:19:52.651Z,4.23
2019-06-08T07:21:18.240Z,5.93
2019-06-08T07:22:44.337Z,4.60
2019-06-08T07:24:09.801Z,5.50
2019-06-08T07:25:35.917Z,4.33
2019-06-08T07:27:03.141Z,5.43
2019-06-08T07:28:29.497Z,5.47
2019-06-08T07:29:55.939Z,5.30
2019-06-08T07:31:22.097Z,4.77
2019-06-08T07:32:49.137Z,5.37
2019-06-08T07:34:15.404Z,4.90
2019-06-08T07:35:40.826Z,5.27
2019-06-08T07:37:07.105Z,5.03
2019-06-08T07:38:32.803Z,5.65
2019-06-08T07:40:00.165Z,6.70
2019-06-08T07:41:25.908Z,5.23
2019-06-08T07:42:53.352Z,5.40
2019-06-08T07:44:19.179Z,4.50
2019-06-08T07:45:45.678Z,5.93
2019-06-08T07:47:11.291Z,4.60
2019-06-08T07:48:37.616Z,5.27
2019-06-08T07:50:04.949Z,4.17
2019-06-08T07:51:32.775Z,5.37
2019-06-08T07:53:04.115Z,6.20
2019-06-08T07:54:34.507Z,4.40
2019-06-08T07:56:00.745Z,5.40
2019-06-08T07:57:27.339Z,5.87
2019-06-08T07:58:55.494Z,5.93
2019-06-08T08:00:26.096Z,5.40
2019-06-08T08:01:51.985Z,4.97
2019-06-08T08:03:18.161Z,4.80
2019-06-08T08:04:43.711Z,5.00
2019-06-08T08:06:10.428Z,4.87
2019-06-08T08:07:37.203Z,4.63
2019-06-08T08:09:05.352Z,5.53
2019-06-08T08:10:30.901Z,5.63
2019-06-08T08:11:57.208Z,5.07
2019-06-08T08:13:23.757Z,5.30
2019-06-08T08:14:51.194Z,4.40
2019-06-08T08:16:16.928Z,5.10
2019-06-08T08:17:43.433Z,4.53
2019-06-08T08:19:08.871Z,4.20
2019-06-08T08:20:35.024Z,4.40
2019-06-08T08:22:10.685Z,5.23
2019-06-08T08:23:28.231Z,4.70
2019-06-08T08:24:55.701Z,4.53
2019-06-08T08:26:21.383Z,4.13
2019-06-08T08:27:47.949Z,5.40
2019-06-08T08:29:14.545Z,4.53
2019-06-08T08:30:40.041Z,5.23
2019-06-08T08:32:07.535Z,4.37
2019-06-08T08:33:33.413Z,5.10
2019-06-08T08:35:02.695Z,4.30
2019-06-08T08:36:28.944Z,4.53
2019-06-08T08:37:56.999Z,3.70
2019-06-08T08:39:21.425Z,4.67
2019-06-08T08:40:49.712Z,4.10
2019-06-08T08:42:14.566Z,3.83
2019-06-08T08:43:40.687Z,4.93
2019-06-08T08:45:08.710Z,4.30
2019-06-08T08:46:34.464Z,3.50
2019-06-08T08:48:17.156Z,4.80
2019-06-08T08:49:28.145Z,4.00
2019-06-08T08:50:54.201Z,4.20
2019-06-08T08:52:33.708Z,4.03
2019-06-08T08:53:48.182Z,4.50
2019-06-08T08:55:20.224Z,4.10
2019-06-08T08:56:42.632Z,3.70
2019-06-08T08:58:08.791Z,4.33
2019-06-08T08:59:34.415Z,3.93
2019-06-08T09:01:03.487Z,3.50
2019-06-08T09:02:27.782Z,3.33
2019-06-08T09:03:56.818Z,3.53
2019-06-08T09:05:21.155Z,5.50
2019-06-08T09:06:48.341Z,4.00
2019-06-08T09:08:14.020Z,5.10
2019-06-08T09:09:40.332Z,4.33
2019-06-08T09:11:07.989Z,3.70
2019-06-08T09:12:33.672Z,4.97
2019-06-08T09:14:05.736Z,3.77
2019-06-08T09:15:31.154Z,3.70
2019-06-08T09:16:55.636Z,3.87
2019-06-08T09:18:21.917Z,4.43
2019-06-08T09:19:48.021Z,4.90
2019-06-08T09:21:18.387Z,4.97
2019-06-08T09:22:54.000Z,3.63
2019-06-08T09:24:10.795Z,4.43
2019-06-08T09:25:37.377Z,4.80
2019-06-08T09:27:04.620Z,4.00
2019-06-08T09:28:30.182Z,4.07
2019-06-08T09:29:59.370Z,4.80
2019-06-08T09:31:23.357Z,3.90
2019-06-08T09:32:49.413Z,4.53
2019-06-08T09:34:15.625Z,5.00
2019-06-08T09:35:42.835Z,3.97
2019-06-08T09:37:08.664Z,4.50
2019-06-08T09:38:35.130Z,4.63
2019-06-08T09:40:02.209Z,5.20
2019-06-08T09:41:31.222Z,4.70
2019-06-08T09:43:04.090Z,4.40
2019-06-08T09:44:27.936Z,3.87
2019-06-08T09:45:53.722Z,4.03
2019-06-08T09:47:20.293Z,3.80
2019-06-08T09:48:48.713Z,4.07
2019-06-08T09:50:18.276Z,3.70
2019-06-08T09:51:42.760Z,3.90
2019-06-08T09:53:23.037Z,3.37
2019-06-08T09:54:38.241Z,4.10
2019-06-08T09:56:06.516Z,3.70
2019-06-08T09:57:31.533Z,4.20
2019-06-08T09:59:01.350Z,4.17
2019-06-08T10:00:26.389Z,4.17
2019-06-08T10:02:00.124Z,4.13
2019-06-08T10:03:23.473Z,4.37
2019-06-08T10:04:49.487Z,3.77
2019-06-08T10:06:14.982Z,5.00
2019-06-08T10:07:41.143Z,3.27
2019-06-08T10:09:09.080Z,4.33
2019-06-08T10:10:35.304Z,3.87
2019-06-08T10:12:03.431Z,3.23
2019-06-08T10:13:30.590Z,3.27
2019-06-08T10:14:56.660Z,3.80
2019-06-08T10:16:22.852Z,3.70
2019-06-08T10:17:50.865Z,3.93
2019-06-08T10:19:18.728Z,4.47
2019-06-08T10:20:44.552Z,3.13
2019-06-08T10:22:10.717Z,3.73
2019-06-08T10:23:38.617Z,3.97
2019-06-08T10:25:07.498Z,3.67
2019-06-08T10:26:31.009Z,3.60
2019-06-08T10:28:04.090Z,4.27
2019-06-08T10:29:24.124Z,3.77
2019-06-08T10:30:50.209Z,3.57
2019-06-08T10:32:18.048Z,5.93
2019-06-08T10:33:44.253Z,4.53
2019-06-08T10:35:10.624Z,4.80
2019-06-08T10:36:38.318Z,4.17
2019-06-08T10:38:07.946Z,4.93
2019-06-08T10:39:31.896Z,3.93
2019-06-08T10:41:10.204Z,4.33
2019-06-08T10:42:32.018Z,3.37
2019-06-08T10:43:59.124Z,3.50
2019-06-08T10:45:25.586Z,3.30
2019-06-08T10:46:51.226Z,3.63
2019-06-08T10:48:17.942Z,3.43
2019-06-08T10:49:43.776Z,3.90
2019-06-08T10:51:12.468Z,3.60
2019-06-08T10:52:39.155Z,3.10
2019-06-08T10:54:07.045Z,4.60
2019-06-08T10:55:32.211Z,4.90
2019-06-08T10:57:00.375Z,3.70
2019-06-08T10:58:25.567Z,3.57
2019-06-08T10:59:51.760Z,3.40
2019-06-08T11:01:18.797Z,3.10
2019-06-08T11:02:45.137Z,4.23
2019-06-08T11:04:11.044Z,3.40
2019-06-08T11:05:37.245Z,3.30
2019-06-08T11:07:07.220Z,3.50
2019-06-08T11:08:30.881Z,3.60
2019-06-08T11:09:58.684Z,3.57
2019-06-08T11:11:24.426Z,4.03
2019-06-08T11:12:50.211Z,4.00
2019-06-08T11:14:18.458Z,3.10
2019-06-08T11:15:43.479Z,3.70
2019-06-08T11:17:11.217Z,3.93
2019-06-08T11:18:36.678Z,4.67
2019-06-08T11:20:21.249Z,4.33
2019-06-08T11:21:48.208Z,3.30
2019-06-08T11:23:13.983Z,4.30
2019-06-08T11:24:40.028Z,3.80
2019-06-08T11:26:13.753Z,5.13
2019-06-08T11:27:33.375Z,3.93
2019-06-08T11:29:01.099Z,3.93
2019-06-08T11:30:30.315Z,4.00
2019-06-08T11:31:53.882Z,4.00
2019-06-08T11:33:20.055Z,5.10
2019-06-08T11:34:45.520Z,4.40
2019-06-08T11:36:14.751Z,5.83
2019-06-08T11:37:40.988Z,3.53
2019-06-08T11:39:10.912Z,4.60
2019-06-08T11:40:37.779Z,3.70
2019-06-08T11:42:12.842Z,3.97
2019-06-08T11:43:38.159Z,4.07
2019-06-08T11:45:04.603Z,3.93
2019-06-08T11:46:30.285Z,4.17
2019-06-08T11:47:58.400Z,4.80
2019-06-08T11:49:23.645Z,4.97
2019-06-08T11:50:50.402Z,4.50
2019-06-08T11:52:18.328Z,4.70
2019-06-08T11:53:43.940Z,6.53
2019-06-08T11:55:12.520Z,8.73
2019-06-08T11:56:40.359Z,4.00
2019-06-08T11:58:05.488Z,4.73
2019-06-08T11:59:33.383Z,4.47
2019-06-08T12:01:09.951Z,4.43
2019-06-08T12:02:34.049Z,4.73
2019-06-08T12:03:59.524Z,4.57
2019-06-08T12:05:27.753Z,3.53
2019-06-08T12:06:52.676Z,5.23
2019-06-08T12:08:20.914Z,4.10
2019-06-08T12:09:49.932Z,4.40
2019-06-08T12:11:18.233Z,3.90
2019-06-08T12:12:40.995Z,4.30
2019-06-08T12:14:09.220Z,4.13
2019-06-08T12:15:34.492Z,4.70
2019-06-08T12:17:01.280Z,4.33
2019-06-08T12:18:27.510Z,4.27
2019-06-08T12:19:54.032Z,4.67
2019-06-08T12:21:19.575Z,3.93
2019-06-08T12:22:47.874Z,4.90
2019-06-08T12:24:14.310Z,4.00
2019-06-08T12:25:40.761Z,4.60
2019-06-08T12:27:16.584Z,4.10
2019-06-08T12:28:34.102Z,4.63
2019-06-08T12:29:59.667Z,4.17
2019-06-08T12:31:27.697Z,3.37
2019-06-08T12:32:52.816Z,3.83
2019-06-08T12:34:18.968Z,4.57
2019-06-08T12:35:44.633Z,3.63
2019-06-08T12:37:15.723Z,4.07
2019-06-08T12:38:38.080Z,3.77
2019-06-08T12:40:04.379Z,4.07
2019-06-08T12:41:31.446Z,3.60
2019-06-08T12:42:59.667Z,3.53
2019-06-08T12:44:26.799Z,4.30
2019-06-08T12:45:52.763Z,3.97
2019-06-08T12:47:25.843Z,4.20
2019-06-08T12:48:45.968Z,4.60
2019-06-08T12:50:13.451Z,3.87
2019-06-08T12:51:39.832Z,4.50
2019-06-08T12:53:11.232Z,4.60
2019-06-08T12:54:33.251Z,3.93
2019-06-08T12:55:58.774Z,4.97
2019-06-08T12:57:24.844Z,4.10
2019-06-08T12:58:50.299Z,3.50
2019-06-08T13:00:19.561Z,4.57
2019-06-08T13:01:43.915Z,4.77
2019-06-08T13:03:11.308Z,4.13
2019-06-08T13:04:38.407Z,4.47
2019-06-08T13:06:04.832Z,4.17
2019-06-08T13:07:30.435Z,4.30
2019-06-08T13:08:57.784Z,4.97
2019-06-08T13:10:24.337Z,4.70
2019-06-08T13:11:50.823Z,4.57
2019-06-08T13:13:19.940Z,4.90
2019-06-08T13:14:44.318Z,4.60
2019-06-08T13:16:10.515Z,5.27
2019-06-08T13:17:38.070Z,5.63
2019-06-08T13:19:03.993Z,4.50
2019-06-08T13:20:30.106Z,5.30
2019-06-08T13:22:08.947Z,4.80
2019-06-08T13:23:35.324Z,5.10
2019-06-08T13:25:15.661Z,4.97
2019-06-08T13:26:31.141Z,5.80
2019-06-08T13:27:58.258Z,6.30
2019-06-08T13:29:24.157Z,6.10
2019-06-08T13:30:50.252Z,5.80
2019-06-08T13:32:18.522Z,5.33
2019-06-08T13:33:44.577Z,4.40
2019-06-08T13:35:11.938Z,5.30
2019-06-08T13:36:40.266Z,7.00
2019-06-08T13:38:05.673Z,7.80
2019-06-08T13:39:31.225Z,6.17
2019-06-08T13:40:58.951Z,6.13
2019-06-08T13:42:24.569Z,6.40
2019-06-08T13:43:50.673Z,6.83
2019-06-08T13:45:18.444Z,7.30
2019-06-08T13:46:44.076Z,6.77
2019-06-08T13:48:09.659Z,7.30
2019-06-08T13:49:39.451Z,6.07
2019-06-08T13:51:04.926Z,5.57
2019-06-08T13:52:31.072Z,5.00
2019-06-08T13:53:58.175Z,5.80
2019-06-08T13:55:47.960Z,4.57
2019-06-08T13:57:19.974Z,6.30
2019-06-08T13:58:48.816Z,5.80
2019-06-08T14:00:24.835Z,5.70
2019-06-08T14:01:51.571Z,5.23
2019-06-08T14:03:18.598Z,4.70
2019-06-08T14:04:46.185Z,6.30
2019-06-08T14:06:48.551Z,5.27
2019-06-08T14:08:14.557Z,5.53
2019-06-08T14:09:40.174Z,4.90
2019-06-08T14:11:08.280Z,5.80
2019-06-08T14:12:34.013Z,4.70
2019-06-08T14:14:01.194Z,5.23
2019-06-08T14:15:28.234Z,5.70
2019-06-08T14:16:54.824Z,4.87
2019-06-08T14:18:24.723Z,5.07
2019-06-08T14:19:48.313Z,5.23
2019-06-08T14:21:15.046Z,5.73
2019-06-08T14:22:41.275Z,4.83
2019-06-08T14:24:09.705Z,5.70
2019-06-08T14:25:47.937Z,5.23
2019-06-08T14:27:02.963Z,6.30
2019-06-08T14:28:30.282Z,5.70
2019-06-08T14:29:58.246Z,5.03
2019-06-08T14:31:25.167Z,4.77
2019-06-08T14:32:50.926Z,4.80
2019-06-08T14:34:18.682Z,4.90
2019-06-08T14:35:44.299Z,5.20
2019-06-08T14:37:10.415Z,4.67
2019-06-08T14:38:41.017Z,6.07
2019-06-08T14:40:03.542Z,5.67
2019-06-08T14:41:31.400Z,5.70
2019-06-08T14:42:58.098Z,6.13
2019-06-08T14:44:24.074Z,5.70
2019-06-08T14:45:50.162Z,6.07
2019-06-08T14:47:15.710Z,6.77
2019-06-08T14:48:45.023Z,6.03
2019-06-08T14:50:09.276Z,6.93
2019-06-08T14:51:50.662Z,5.70
2019-06-08T14:53:18.846Z,4.50
2019-06-08T14:54:45.162Z,5.90
2019-06-08T14:56:11.191Z,5.17
2019-06-08T14:57:37.502Z,5.60
2019-06-08T14:59:04.510Z,6.33
2019-06-08T15:00:29.999Z,5.60
2019-06-08T15:02:50.380Z,5.77
2019-06-08T15:04:35.941Z,5.40
2019-06-08T15:06:27.567Z,5.40
2019-06-08T15:08:00.443Z,5.17
2019-06-08T15:09:25.579Z,5.17
2019-06-08T15:14:41.614Z,5.23
2019-06-08T15:16:08.257Z,5.20
2019-06-08T15:17:34.244Z,5.67
2019-06-08T15:19:00.465Z,5.47
2019-06-08T15:20:26.263Z,6.30
2019-06-08T15:21:53.199Z,5.50
2019-06-08T15:23:21.239Z,5.63
2019-06-08T15:24:47.880Z,6.63
2019-06-08T15:26:26.631Z,6.50
2019-06-08T15:27:41.213Z,6.00
2019-06-08T15:29:07.505Z,6.10
2019-06-08T15:30:33.654Z,6.30
2019-06-08T15:31:59.101Z,6.20
2019-06-08T15:33:26.952Z,5.83
2019-06-08T15:34:52.350Z,5.63
2019-06-08T15:36:20.852Z,6.17
2019-06-08T15:37:47.703Z,5.97
2019-06-08T15:39:13.582Z,5.87
2019-06-08T15:40:39.190Z,6.13
2019-06-08T15:42:08.049Z,5.90
2019-06-08T15:43:36.632Z,7.03
2019-06-08T15:45:00.276Z,5.57
2019-06-08T15:46:26.384Z,5.60
2019-06-08T15:47:52.365Z,6.10
2019-06-08T15:49:18.592Z,6.73
2019-06-08T15:50:47.156Z,6.10
2019-06-08T15:52:12.004Z,5.23
2019-06-08T15:53:40.431Z,6.27
2019-06-08T15:55:08.518Z,6.30
2019-06-08T15:56:45.789Z,7.20
2019-06-08T15:58:00.633Z,6.77
2019-06-08T15:59:28.617Z,7.10
2019-06-08T16:00:55.442Z,5.63
2019-06-08T16:02:21.326Z,6.07
2019-06-08T16:03:46.953Z,6.00
2019-06-08T16:05:13.065Z,7.07
2019-06-08T16:06:38.516Z,5.90
2019-06-08T16:08:04.718Z,6.30
2019-06-08T16:09:30.241Z,6.10
2019-06-08T16:11:04.319Z,5.87
2019-06-08T16:12:30.655Z,5.83
2019-06-08T16:13:56.810Z,5.47
2019-06-08T16:15:22.258Z,6.13
2019-06-08T16:16:48.282Z,5.50
2019-06-08T16:18:13.897Z,5.70
2019-06-08T16:19:39.887Z,5.47
2019-06-08T16:21:05.413Z,6.43
2019-06-08T16:22:31.722Z,6.40
2019-06-08T16:23:57.687Z,5.67
2019-06-08T16:25:23.693Z,6.70
2019-06-08T16:26:53.365Z,5.63
2019-06-08T16:28:17.366Z,6.30
2019-06-08T16:29:42.859Z,5.93
2019-06-08T16:31:08.898Z,6.07
2019-06-08T16:32:35.412Z,5.83
2019-06-08T16:34:01.767Z,8.17
2019-06-08T16:35:28.112Z,6.60
2019-06-08T16:36:55.031Z,5.80
2019-06-08T16:38:20.462Z,6.40
2019-06-08T16:39:46.591Z,6.40
2019-06-08T16:41:12.203Z,6.10
2019-06-08T16:42:40.193Z,6.10
2019-06-08T16:44:07.157Z,7.00
2019-06-08T16:45:33.701Z,6.40
2019-06-08T16:46:59.263Z,6.30
2019-06-08T16:48:25.364Z,5.87
2019-06-08T16:49:50.797Z,6.20
2019-06-08T16:51:16.974Z,6.90
2019-06-08T16:52:42.659Z,7.07
2019-06-08T16:54:08.934Z,6.03
2019-06-08T16:55:34.471Z,6.53
2019-06-08T16:57:10.339Z,6.93
2019-06-08T16:58:27.893Z,6.40
2019-06-08T16:59:53.998Z,6.53
2019-06-08T17:01:19.414Z,6.20
2019-06-08T17:02:45.422Z,7.10
2019-06-08T17:04:10.922Z,6.77
2019-06-08T17:05:36.930Z,7.43
2019-06-08T17:07:03.177Z,9.60
2019-06-08T17:58:09.662Z,17.13
2019-06-08T17:59:35.784Z,12.87
2019-06-08T18:01:01.207Z,10.23
2019-06-08T18:02:29.173Z,16.13
2019-06-08T18:03:54.424Z,16.30
2019-06-08T18:05:20.641Z,8.60
2019-06-08T18:06:47.389Z,10.47
2019-06-08T18:08:13.542Z,15.13
2019-06-08T18:09:40.668Z,17.13
2019-06-08T18:11:08.078Z,11.60
2019-06-08T18:12:33.975Z,11.10
2019-06-08T18:14:00.156Z,11.97
2019-06-08T18:15:27.924Z,9.80
2019-06-08T18:16:53.214Z,10.77
2019-06-08T18:18:18.746Z,9.90
2019-06-08T18:19:47.139Z,11.33
2019-06-08T18:21:11.922Z,10.00
2019-06-08T18:22:40.998Z,9.73
2019-06-08T18:24:05.185Z,8.77
2019-06-08T18:25:31.214Z,9.10
2019-06-08T18:26:58.748Z,8.13
2019-06-08T18:28:24.846Z,8.63
2019-06-08T18:29:50.271Z,8.20
2019-06-08T18:31:18.127Z,8.43
2019-06-08T18:32:44.124Z,9.80
2019-06-08T18:34:11.616Z,6.73
2019-06-08T18:35:39.377Z,8.60
2019-06-08T18:37:04.809Z,7.93
2019-06-08T18:38:30.284Z,7.07
2019-06-08T18:39:57.882Z,8.73
2019-06-08T18:41:23.492Z,9.20
2019-06-08T18:42:49.661Z,9.30
2019-06-08T18:44:17.248Z,8.47
2019-06-08T18:45:44.077Z,8.80
2019-06-08T18:47:09.893Z,9.10
2019-06-08T18:48:39.921Z,7.57
2019-06-08T18:50:03.137Z,9.30
2019-06-08T18:51:29.533Z,9.63
2019-06-08T18:52:55.006Z,8.17
2019-06-08T18:54:22.041Z,9.40
2019-06-08T18:55:50.140Z,10.03
2019-06-08T18:57:17.515Z,8.37
2019-06-08T18:58:42.277Z,9.17
2019-06-08T19:00:11.677Z,7.20
2019-06-08T19:01:39.090Z,7.60
2019-06-08T19:03:06.985Z,7.90
2019-06-08T19:04:32.171Z,7.40
2019-06-08T19:05:58.929Z,7.55
2019-06-08T19:07:24.376Z,8.47
2019-06-08T19:08:51.068Z,7.90
2019-06-08T19:10:29.923Z,9.17
2019-06-08T19:11:57.476Z,7.30
2019-06-08T19:13:23.082Z,9.27
2019-06-08T19:14:52.099Z,7.50
2019-06-08T19:16:18.172Z,7.93
2019-06-08T19:17:50.290Z,7.80
2019-06-08T19:19:11.801Z,11.20
2019-06-08T19:20:43.120Z,9.00
2019-06-08T19:22:05.072Z,10.13
2019-06-08T19:23:31.226Z,8.70
2019-06-08T19:24:56.706Z,8.30
2019-06-08T19:26:22.699Z,8.70
2019-06-08T19:27:53.208Z,8.80
2019-06-08T19:29:19.116Z,10.37
2019-06-08T19:30:45.515Z,9.90
2019-06-08T19:32:10.511Z,8.40
2019-06-08T19:33:37.294Z,8.80
2019-06-08T19:35:03.707Z,8.97
2019-06-08T19:36:29.230Z,8.80
2019-06-08T19:37:58.162Z,9.20
2019-06-08T19:39:22.580Z,9.87
2019-06-08T19:40:48.631Z,12.17
2019-06-08T19:42:14.051Z,10.57
2019-06-08T19:43:41.845Z,8.67
2019-06-08T19:45:08.763Z,7.67
2019-06-08T19:46:35.098Z,9.33
2019-06-08T19:48:00.547Z,8.17
2019-06-08T19:49:28.245Z,8.97
2019-06-08T19:50:54.446Z,9.30
2019-06-08T19:52:20.646Z,10.13
2019-06-08T19:53:49.433Z,8.90
2019-06-08T19:55:14.806Z,9.30
2019-06-08T19:56:41.509Z,9.60
2019-06-08T19:58:08.783Z,9.63
2019-06-08T19:59:38.239Z,11.13
2019-06-08T20:01:07.315Z,8.37
2019-06-08T20:02:32.418Z,9.00
2019-06-08T20:04:01.307Z,9.90
2019-06-08T20:05:27.919Z,8.73
2019-06-08T20:06:53.452Z,9.33
2019-06-08T20:08:18.895Z,8.57
2019-06-08T20:09:45.863Z,8.70
2019-06-08T20:11:12.184Z,9.43